sensor_id;sensor_type;location;lat;lon;timestamp;temperature;humidity
59301;DHT22;45073;52.740;6.784;2024-01-16T00:01:28;0.40;99.90
59301;DHT22;45073;52.740;6.784;2024-01-16T00:03:53;0.40;99.90
59301;DHT22;45073;52.740;6.784;2024-01-16T00:06:19;0.40;99.90
59301;DHT22;45073;52.740;6.784;2024-01-16T00:08:45;0.40;99.90
59301;DHT22;45073;52.740;6.784;2024-01-16T00:11:10;0.30;99.90
59301;DHT22;45073;52.740;6.784;2024-01-16T00:13:36;0.30;99.90
59301;DHT22;45073;52.740;6.784;2024-01-16T00:16:02;0.30;99.90
59301;DHT22;45073;52.740;6.784;2024-01-16T00:18:29;0.30;99.90
59301;DHT22;45073;52.740;6.784;2024-01-16T00:20:55;0.30;99.90
59301;DHT22;45073;52.740;6.784;2024-01-16T00:23:20;0.30;99.90
59301;DHT22;45073;52.740;6.784;2024-01-16T00:25:46;0.30;99.90
59301;DHT22;45073;52.740;6.784;2024-01-16T00:28:12;0.30;99.90
59301;DHT22;45073;52.740;6.784;2024-01-16T00:30:37;0.30;99.90
59301;DHT22;45073;52.740;6.784;2024-01-16T00:33:03;0.30;99.90
59301;DHT22;45073;52.740;6.784;2024-01-16T00:35:29;0.30;99.90
59301;DHT22;45073;52.740;6.784;2024-01-16T00:37:54;0.40;99.90
59301;DHT22;45073;52.740;6.784;2024-01-16T00:40:20;0.40;99.90
59301;DHT22;45073;52.740;6.784;2024-01-16T00:42:46;0.40;99.90
59301;DHT22;45073;52.740;6.784;2024-01-16T00:45:11;0.40;99.90
59301;DHT22;45073;52.740;6.784;2024-01-16T00:47:37;0.40;99.90
59301;DHT22;45073;52.740;6.784;2024-01-16T00:50:02;0.50;99.90
59301;DHT22;45073;52.740;6.784;2024-01-16T00:52:28;0.40;99.90
59301;DHT22;45073;52.740;6.784;2024-01-16T00:54:54;0.50;99.90
59301;DHT22;45073;52.740;6.784;2024-01-16T00:57:20;0.50;99.90
59301;DHT22;45073;52.740;6.784;2024-01-16T00:59:46;0.50;99.90
59301;DHT22;45073;52.740;6.784;2024-01-16T01:02:12;0.50;99.90
59301;DHT22;45073;52.740;6.784;2024-01-16T01:04:38;0.50;99.90
59301;DHT22;45073;52.740;6.784;2024-01-16T01:07:03;0.50;99.90
59301;DHT22;45073;52.740;6.784;2024-01-16T01:09:29;0.50;99.90
59301;DHT22;45073;52.740;6.784;2024-01-16T01:11:57;0.50;99.90
59301;DHT22;45073;52.740;6.784;2024-01-16T01:14:23;0.50;99.90
59301;DHT22;45073;52.740;6.784;2024-01-16T01:16:48;0.50;99.90
59301;DHT22;45073;52.740;6.784;2024-01-16T01:19:14;0.40;99.90
59301;DHT22;45073;52.740;6.784;2024-01-16T01:21:39;0.40;99.90
59301;DHT22;45073;52.740;6.784;2024-01-16T01:24:05;0.40;99.90
59301;DHT22;45073;52.740;6.784;2024-01-16T01:26:31;0.40;99.90
59301;DHT22;45073;52.740;6.784;2024-01-16T01:28:56;0.40;99.90
59301;DHT22;45073;52.740;6.784;2024-01-16T01:31:22;0.30;99.90
59301;DHT22;45073;52.740;6.784;2024-01-16T01:33:48;0.30;99.90
59301;DHT22;45073;52.740;6.784;2024-01-16T01:36:14;0.30;99.90
59301;DHT22;45073;52.740;6.784;2024-01-16T01:38:39;0.20;99.90
59301;DHT22;45073;52.740;6.784;2024-01-16T01:41:05;0.20;99.90
59301;DHT22;45073;52.740;6.784;2024-01-16T01:43:30;0.20;99.90
59301;DHT22;45073;52.740;6.784;2024-01-16T01:46:18;0.20;99.90
59301;DHT22;45073;52.740;6.784;2024-01-16T01:48:46;0.10;99.90
59301;DHT22;45073;52.740;6.784;2024-01-16T01:51:12;0.10;99.90
59301;DHT22;45073;52.740;6.784;2024-01-16T01:53:39;0.10;99.90
59301;DHT22;45073;52.740;6.784;2024-01-16T01:56:09;0.00;99.90
59301;DHT22;45073;52.740;6.784;2024-01-16T01:58:36;0.00;99.90
59301;DHT22;45073;52.740;6.784;2024-01-16T02:01:03;0.00;99.90
59301;DHT22;45073;52.740;6.784;2024-01-16T02:03:35;-0.10;99.90
59301;DHT22;45073;52.740;6.784;2024-01-16T02:06:01;-0.10;99.90
59301;DHT22;45073;52.740;6.784;2024-01-16T02:08:26;-0.10;99.90
59301;DHT22;45073;52.740;6.784;2024-01-16T02:10:52;-0.10;99.90
59301;DHT22;45073;52.740;6.784;2024-01-16T02:13:19;-0.10;99.90
59301;DHT22;45073;52.740;6.784;2024-01-16T02:15:49;-0.10;99.90
59301;DHT22;45073;52.740;6.784;2024-01-16T02:18:15;0.00;99.90
59301;DHT22;45073;52.740;6.784;2024-01-16T02:20:42;0.00;99.90
59301;DHT22;45073;52.740;6.784;2024-01-16T02:23:10;0.10;99.90
59301;DHT22;45073;52.740;6.784;2024-01-16T02:25:38;0.10;99.90
59301;DHT22;45073;52.740;6.784;2024-01-16T02:28:04;0.10;99.90
59301;DHT22;45073;52.740;6.784;2024-01-16T02:30:29;0.10;99.90
59301;DHT22;45073;52.740;6.784;2024-01-16T02:32:56;0.00;99.90
59301;DHT22;45073;52.740;6.784;2024-01-16T02:35:21;0.00;99.90
59301;DHT22;45073;52.740;6.784;2024-01-16T02:37:47;-0.10;99.90
59301;DHT22;45073;52.740;6.784;2024-01-16T02:40:13;-0.10;99.90
59301;DHT22;45073;52.740;6.784;2024-01-16T02:42:38;-0.10;99.90
59301;DHT22;45073;52.740;6.784;2024-01-16T02:45:05;-0.10;99.90
59301;DHT22;45073;52.740;6.784;2024-01-16T02:47:31;-0.20;99.90
59301;DHT22;45073;52.740;6.784;2024-01-16T02:49:56;-0.20;99.90
59301;DHT22;45073;52.740;6.784;2024-01-16T02:52:22;-0.20;99.90
59301;DHT22;45073;52.740;6.784;2024-01-16T02:54:48;-0.20;99.90
59301;DHT22;45073;52.740;6.784;2024-01-16T02:57:14;-0.20;99.90
59301;DHT22;45073;52.740;6.784;2024-01-16T02:59:39;-0.30;99.90
59301;DHT22;45073;52.740;6.784;2024-01-16T03:02:05;-0.30;99.90
59301;DHT22;45073;52.740;6.784;2024-01-16T03:04:31;-0.30;99.90
59301;DHT22;45073;52.740;6.784;2024-01-16T03:06:56;-0.30;99.90
59301;DHT22;45073;52.740;6.784;2024-01-16T03:09:22;-0.30;99.90
59301;DHT22;45073;52.740;6.784;2024-01-16T03:11:47;-0.20;99.90
59301;DHT22;45073;52.740;6.784;2024-01-16T03:14:13;-0.20;99.90
59301;DHT22;45073;52.740;6.784;2024-01-16T03:16:39;-0.20;99.90
59301;DHT22;45073;52.740;6.784;2024-01-16T03:19:05;-0.20;99.90
59301;DHT22;45073;52.740;6.784;2024-01-16T03:21:30;-0.10;99.90
59301;DHT22;45073;52.740;6.784;2024-01-16T03:23:56;-0.10;99.90
59301;DHT22;45073;52.740;6.784;2024-01-16T03:26:22;0.00;99.90
59301;DHT22;45073;52.740;6.784;2024-01-16T03:28:47;0.00;99.90
59301;DHT22;45073;52.740;6.784;2024-01-16T03:31:13;0.00;99.90
59301;DHT22;45073;52.740;6.784;2024-01-16T03:33:39;-0.10;99.90
59301;DHT22;45073;52.740;6.784;2024-01-16T03:36:08;-0.10;99.90
59301;DHT22;45073;52.740;6.784;2024-01-16T03:38:35;-0.10;99.90
59301;DHT22;45073;52.740;6.784;2024-01-16T03:41:02;-0.20;99.90
59301;DHT22;45073;52.740;6.784;2024-01-16T03:43:29;-0.20;99.90
59301;DHT22;45073;52.740;6.784;2024-01-16T03:45:57;-0.30;99.90
59301;DHT22;45073;52.740;6.784;2024-01-16T03:48:23;-0.30;99.90
59301;DHT22;45073;52.740;6.784;2024-01-16T03:50:48;-0.30;99.90
59301;DHT22;45073;52.740;6.784;2024-01-16T03:53:14;-0.30;99.90
59301;DHT22;45073;52.740;6.784;2024-01-16T03:55:39;-0.30;99.90
59301;DHT22;45073;52.740;6.784;2024-01-16T03:58:05;-0.30;99.90
59301;DHT22;45073;52.740;6.784;2024-01-16T04:00:31;-0.40;99.90
59301;DHT22;45073;52.740;6.784;2024-01-16T04:02:56;-0.30;99.90
59301;DHT22;45073;52.740;6.784;2024-01-16T04:05:22;-0.30;99.90
59301;DHT22;45073;52.740;6.784;2024-01-16T04:07:48;-0.40;99.90
59301;DHT22;45073;52.740;6.784;2024-01-16T04:10:14;-0.30;99.90
59301;DHT22;45073;52.740;6.784;2024-01-16T04:12:39;-0.40;99.90
59301;DHT22;45073;52.740;6.784;2024-01-16T04:15:05;-0.40;99.90
59301;DHT22;45073;52.740;6.784;2024-01-16T04:17:31;-0.40;99.90
59301;DHT22;45073;52.740;6.784;2024-01-16T04:19:56;-0.30;99.90
59301;DHT22;45073;52.740;6.784;2024-01-16T04:22:22;-0.30;99.90
59301;DHT22;45073;52.740;6.784;2024-01-16T04:24:48;-0.30;99.90
59301;DHT22;45073;52.740;6.784;2024-01-16T04:27:13;-0.30;99.90
59301;DHT22;45073;52.740;6.784;2024-01-16T04:29:39;-0.20;99.90
59301;DHT22;45073;52.740;6.784;2024-01-16T04:32:04;-0.20;99.90
59301;DHT22;45073;52.740;6.784;2024-01-16T04:34:30;-0.20;99.90
59301;DHT22;45073;52.740;6.784;2024-01-16T04:36:56;-0.10;99.90
59301;DHT22;45073;52.740;6.784;2024-01-16T04:39:21;-0.10;99.90
59301;DHT22;45073;52.740;6.784;2024-01-16T04:41:50;-0.10;99.90
59301;DHT22;45073;52.740;6.784;2024-01-16T04:44:15;-0.10;99.90
59301;DHT22;45073;52.740;6.784;2024-01-16T04:46:41;0.00;99.90
59301;DHT22;45073;52.740;6.784;2024-01-16T04:49:06;0.00;99.90
59301;DHT22;45073;52.740;6.784;2024-01-16T04:51:32;0.00;99.90
59301;DHT22;45073;52.740;6.784;2024-01-16T04:53:58;0.00;99.90
59301;DHT22;45073;52.740;6.784;2024-01-16T04:56:23;0.00;99.90
59301;DHT22;45073;52.740;6.784;2024-01-16T04:58:49;0.00;99.90
59301;DHT22;45073;52.740;6.784;2024-01-16T05:01:14;0.00;99.90
59301;DHT22;45073;52.740;6.784;2024-01-16T05:03:40;0.00;99.90
59301;DHT22;45073;52.740;6.784;2024-01-16T05:06:12;0.00;99.90
59301;DHT22;45073;52.740;6.784;2024-01-16T05:08:39;0.10;99.90
59301;DHT22;45073;52.740;6.784;2024-01-16T05:11:04;0.10;99.90
59301;DHT22;45073;52.740;6.784;2024-01-16T05:13:30;0.10;99.90
59301;DHT22;45073;52.740;6.784;2024-01-16T05:15:56;0.10;99.90
59301;DHT22;45073;52.740;6.784;2024-01-16T05:18:21;0.10;99.90
59301;DHT22;45073;52.740;6.784;2024-01-16T05:20:47;0.10;99.90
59301;DHT22;45073;52.740;6.784;2024-01-16T05:23:12;0.10;99.90
59301;DHT22;45073;52.740;6.784;2024-01-16T05:25:38;0.10;99.90
59301;DHT22;45073;52.740;6.784;2024-01-16T05:28:04;0.10;99.90
59301;DHT22;45073;52.740;6.784;2024-01-16T05:30:29;0.00;99.90
59301;DHT22;45073;52.740;6.784;2024-01-16T05:32:55;0.00;99.90
59301;DHT22;45073;52.740;6.784;2024-01-16T05:35:21;0.00;99.90
59301;DHT22;45073;52.740;6.784;2024-01-16T05:37:47;0.00;99.90
59301;DHT22;45073;52.740;6.784;2024-01-16T05:40:13;0.00;99.90
59301;DHT22;45073;52.740;6.784;2024-01-16T05:42:38;-0.10;99.90
59301;DHT22;45073;52.740;6.784;2024-01-16T05:45:04;-0.10;99.90
59301;DHT22;45073;52.740;6.784;2024-01-16T05:47:30;-0.10;99.90
59301;DHT22;45073;52.740;6.784;2024-01-16T05:49:56;-0.10;99.90
59301;DHT22;45073;52.740;6.784;2024-01-16T05:52:22;-0.10;99.90
59301;DHT22;45073;52.740;6.784;2024-01-16T05:54:48;-0.10;99.90
59301;DHT22;45073;52.740;6.784;2024-01-16T05:57:14;-0.10;99.90
59301;DHT22;45073;52.740;6.784;2024-01-16T05:59:39;0.00;99.90
59301;DHT22;45073;52.740;6.784;2024-01-16T06:02:05;-0.10;99.90
59301;DHT22;45073;52.740;6.784;2024-01-16T06:04:30;0.00;99.90
59301;DHT22;45073;52.740;6.784;2024-01-16T06:06:56;0.00;99.90
59301;DHT22;45073;52.740;6.784;2024-01-16T06:09:22;0.00;99.90
59301;DHT22;45073;52.740;6.784;2024-01-16T06:11:47;0.00;99.90
59301;DHT22;45073;52.740;6.784;2024-01-16T06:14:13;0.00;99.90
59301;DHT22;45073;52.740;6.784;2024-01-16T06:16:40;0.00;99.90
59301;DHT22;45073;52.740;6.784;2024-01-16T06:19:06;0.10;99.90
59301;DHT22;45073;52.740;6.784;2024-01-16T06:21:33;0.00;99.90
59301;DHT22;45073;52.740;6.784;2024-01-16T06:23:59;0.00;99.90
59301;DHT22;45073;52.740;6.784;2024-01-16T06:26:24;0.00;99.90
59301;DHT22;45073;52.740;6.784;2024-01-16T06:28:50;0.00;99.90
59301;DHT22;45073;52.740;6.784;2024-01-16T06:31:16;0.00;99.90
59301;DHT22;45073;52.740;6.784;2024-01-16T06:33:42;0.10;99.90
59301;DHT22;45073;52.740;6.784;2024-01-16T06:36:07;0.10;99.90
59301;DHT22;45073;52.740;6.784;2024-01-16T06:38:33;0.10;99.90
59301;DHT22;45073;52.740;6.784;2024-01-16T06:40:59;0.10;99.90
59301;DHT22;45073;52.740;6.784;2024-01-16T06:43:24;0.00;99.90
59301;DHT22;45073;52.740;6.784;2024-01-16T06:45:50;0.10;99.90
59301;DHT22;45073;52.740;6.784;2024-01-16T06:48:15;0.10;99.90
59301;DHT22;45073;52.740;6.784;2024-01-16T06:50:41;0.10;99.90
59301;DHT22;45073;52.740;6.784;2024-01-16T06:53:07;0.10;99.90
59301;DHT22;45073;52.740;6.784;2024-01-16T06:55:33;0.10;99.90
59301;DHT22;45073;52.740;6.784;2024-01-16T06:57:58;0.10;99.90
59301;DHT22;45073;52.740;6.784;2024-01-16T07:00:24;0.10;99.90
59301;DHT22;45073;52.740;6.784;2024-01-16T07:02:52;0.10;99.90
59301;DHT22;45073;52.740;6.784;2024-01-16T07:05:18;0.10;99.90
59301;DHT22;45073;52.740;6.784;2024-01-16T07:07:43;0.00;99.90
59301;DHT22;45073;52.740;6.784;2024-01-16T07:10:09;0.10;99.90
59301;DHT22;45073;52.740;6.784;2024-01-16T07:12:39;0.10;99.90
59301;DHT22;45073;52.740;6.784;2024-01-16T07:15:05;0.00;99.90
59301;DHT22;45073;52.740;6.784;2024-01-16T07:17:31;0.10;99.90
59301;DHT22;45073;52.740;6.784;2024-01-16T07:19:57;0.00;99.90
59301;DHT22;45073;52.740;6.784;2024-01-16T07:22:24;0.10;99.90
59301;DHT22;45073;52.740;6.784;2024-01-16T07:24:49;0.10;99.90
59301;DHT22;45073;52.740;6.784;2024-01-16T07:27:15;0.10;99.90
59301;DHT22;45073;52.740;6.784;2024-01-16T07:29:41;0.00;99.90
59301;DHT22;45073;52.740;6.784;2024-01-16T07:32:07;0.00;99.90
59301;DHT22;45073;52.740;6.784;2024-01-16T07:34:32;0.10;99.90
59301;DHT22;45073;52.740;6.784;2024-01-16T07:36:58;0.00;99.90
59301;DHT22;45073;52.740;6.784;2024-01-16T07:39:24;0.10;99.90
59301;DHT22;45073;52.740;6.784;2024-01-16T07:41:49;0.10;99.90
59301;DHT22;45073;52.740;6.784;2024-01-16T07:44:15;0.10;99.90
59301;DHT22;45073;52.740;6.784;2024-01-16T07:46:40;0.10;99.90
59301;DHT22;45073;52.740;6.784;2024-01-16T07:49:06;0.10;99.90
59301;DHT22;45073;52.740;6.784;2024-01-16T07:51:32;0.10;99.90
59301;DHT22;45073;52.740;6.784;2024-01-16T07:54:08;0.10;99.90
59301;DHT22;45073;52.740;6.784;2024-01-16T07:56:37;0.10;99.90
59301;DHT22;45073;52.740;6.784;2024-01-16T07:59:03;0.10;99.90
59301;DHT22;45073;52.740;6.784;2024-01-16T08:01:29;0.10;99.90
59301;DHT22;45073;52.740;6.784;2024-01-16T08:03:55;0.10;99.90
59301;DHT22;45073;52.740;6.784;2024-01-16T08:06:21;0.20;99.90
59301;DHT22;45073;52.740;6.784;2024-01-16T08:08:47;0.10;99.90
59301;DHT22;45073;52.740;6.784;2024-01-16T08:11:14;0.10;99.90
59301;DHT22;45073;52.740;6.784;2024-01-16T08:13:40;0.20;99.90
59301;DHT22;45073;52.740;6.784;2024-01-16T08:16:06;0.20;99.90
59301;DHT22;45073;52.740;6.784;2024-01-16T08:18:31;0.20;99.90
59301;DHT22;45073;52.740;6.784;2024-01-16T08:20:57;0.20;99.90
59301;DHT22;45073;52.740;6.784;2024-01-16T08:23:23;0.20;99.90
59301;DHT22;45073;52.740;6.784;2024-01-16T08:25:48;0.30;99.90
59301;DHT22;45073;52.740;6.784;2024-01-16T08:28:14;0.30;99.90
59301;DHT22;45073;52.740;6.784;2024-01-16T08:30:40;0.40;99.90
59301;DHT22;45073;52.740;6.784;2024-01-16T08:33:06;0.40;99.90
59301;DHT22;45073;52.740;6.784;2024-01-16T08:35:32;0.40;99.90
59301;DHT22;45073;52.740;6.784;2024-01-16T08:37:58;0.50;99.90
59301;DHT22;45073;52.740;6.784;2024-01-16T08:40:24;0.50;99.90
59301;DHT22;45073;52.740;6.784;2024-01-16T08:42:49;0.50;99.90
59301;DHT22;45073;52.740;6.784;2024-01-16T08:45:20;0.50;99.90
59301;DHT22;45073;52.740;6.784;2024-01-16T08:47:46;0.60;99.90
59301;DHT22;45073;52.740;6.784;2024-01-16T08:50:12;0.50;99.90
59301;DHT22;45073;52.740;6.784;2024-01-16T08:52:37;0.60;99.90
59301;DHT22;45073;52.740;6.784;2024-01-16T08:55:03;0.60;99.90
59301;DHT22;45073;52.740;6.784;2024-01-16T08:57:43;0.70;99.90
59301;DHT22;45073;52.740;6.784;2024-01-16T09:00:09;0.70;99.90
59301;DHT22;45073;52.740;6.784;2024-01-16T09:02:35;0.70;99.90
59301;DHT22;45073;52.740;6.784;2024-01-16T09:05:01;0.80;99.90
59301;DHT22;45073;52.740;6.784;2024-01-16T09:07:27;0.80;99.90
59301;DHT22;45073;52.740;6.784;2024-01-16T09:09:52;0.80;99.90
59301;DHT22;45073;52.740;6.784;2024-01-16T09:12:19;0.80;99.90
59301;DHT22;45073;52.740;6.784;2024-01-16T09:14:44;0.80;99.90
59301;DHT22;45073;52.740;6.784;2024-01-16T09:17:10;0.90;99.90
59301;DHT22;45073;52.740;6.784;2024-01-16T09:19:36;0.90;99.90
59301;DHT22;45073;52.740;6.784;2024-01-16T09:22:01;0.90;99.90
59301;DHT22;45073;52.740;6.784;2024-01-16T09:24:28;0.90;99.90
59301;DHT22;45073;52.740;6.784;2024-01-16T09:26:54;0.90;99.90
59301;DHT22;45073;52.740;6.784;2024-01-16T09:29:20;1.00;99.90
59301;DHT22;45073;52.740;6.784;2024-01-16T09:31:46;1.00;99.90
59301;DHT22;45073;52.740;6.784;2024-01-16T09:34:12;1.00;99.90
59301;DHT22;45073;52.740;6.784;2024-01-16T09:36:39;1.00;99.90
59301;DHT22;45073;52.740;6.784;2024-01-16T09:39:06;1.00;99.90
59301;DHT22;45073;52.740;6.784;2024-01-16T09:41:36;1.10;99.90
59301;DHT22;45073;52.740;6.784;2024-01-16T09:44:03;1.10;99.90
59301;DHT22;45073;52.740;6.784;2024-01-16T09:46:30;1.10;99.90
59301;DHT22;45073;52.740;6.784;2024-01-16T09:48:59;1.10;99.90
59301;DHT22;45073;52.740;6.784;2024-01-16T09:51:25;1.10;99.90
59301;DHT22;45073;52.740;6.784;2024-01-16T09:53:51;1.20;99.90
59301;DHT22;45073;52.740;6.784;2024-01-16T09:56:21;1.20;99.90
59301;DHT22;45073;52.740;6.784;2024-01-16T09:58:49;1.20;99.90
59301;DHT22;45073;52.740;6.784;2024-01-16T10:01:15;1.30;99.90
59301;DHT22;45073;52.740;6.784;2024-01-16T10:03:44;1.30;99.90
59301;DHT22;45073;52.740;6.784;2024-01-16T10:06:11;1.30;99.90
59301;DHT22;45073;52.740;6.784;2024-01-16T10:08:37;1.30;99.90
59301;DHT22;45073;52.740;6.784;2024-01-16T10:11:03;1.30;99.90
59301;DHT22;45073;52.740;6.784;2024-01-16T10:13:30;1.30;99.90
59301;DHT22;45073;52.740;6.784;2024-01-16T10:15:56;1.30;99.90
59301;DHT22;45073;52.740;6.784;2024-01-16T10:18:27;1.30;99.90
59301;DHT22;45073;52.740;6.784;2024-01-16T10:20:53;1.30;99.90
59301;DHT22;45073;52.740;6.784;2024-01-16T10:23:31;1.30;99.90
59301;DHT22;45073;52.740;6.784;2024-01-16T10:26:12;1.30;99.90
59301;DHT22;45073;52.740;6.784;2024-01-16T10:28:41;1.40;99.90
59301;DHT22;45073;52.740;6.784;2024-01-16T10:31:11;1.40;99.90
59301;DHT22;45073;52.740;6.784;2024-01-16T10:33:38;1.40;99.90
59301;DHT22;45073;52.740;6.784;2024-01-16T10:36:10;1.40;99.90
59301;DHT22;45073;52.740;6.784;2024-01-16T10:38:37;1.40;99.90
59301;DHT22;45073;52.740;6.784;2024-01-16T10:41:12;1.50;99.90
59301;DHT22;45073;52.740;6.784;2024-01-16T10:43:38;1.50;99.90
59301;DHT22;45073;52.740;6.784;2024-01-16T10:46:12;1.50;99.90
59301;DHT22;45073;52.740;6.784;2024-01-16T10:48:40;1.50;99.90
59301;DHT22;45073;52.740;6.784;2024-01-16T10:51:07;1.50;99.90
59301;DHT22;45073;52.740;6.784;2024-01-16T10:53:34;1.50;99.90
59301;DHT22;45073;52.740;6.784;2024-01-16T10:56:01;1.50;99.90
59301;DHT22;45073;52.740;6.784;2024-01-16T10:58:29;1.60;99.90
59301;DHT22;45073;52.740;6.784;2024-01-16T11:00:59;1.60;99.90
59301;DHT22;45073;52.740;6.784;2024-01-16T11:03:35;1.60;99.90
59301;DHT22;45073;52.740;6.784;2024-01-16T11:06:06;1.70;99.90
59301;DHT22;45073;52.740;6.784;2024-01-16T11:08:35;1.70;99.90
59301;DHT22;45073;52.740;6.784;2024-01-16T11:11:02;1.70;99.90
59301;DHT22;45073;52.740;6.784;2024-01-16T11:13:32;1.70;99.90
59301;DHT22;45073;52.740;6.784;2024-01-16T11:15:59;1.80;99.90
59301;DHT22;45073;52.740;6.784;2024-01-16T11:18:27;1.80;99.90
59301;DHT22;45073;52.740;6.784;2024-01-16T11:20:54;1.70;99.90
59301;DHT22;45073;52.740;6.784;2024-01-16T11:23:20;1.70;99.90
59301;DHT22;45073;52.740;6.784;2024-01-16T11:25:46;1.70;99.90
59301;DHT22;45073;52.740;6.784;2024-01-16T11:28:13;1.70;99.90
59301;DHT22;45073;52.740;6.784;2024-01-16T11:30:40;1.70;99.90
59301;DHT22;45073;52.740;6.784;2024-01-16T11:33:06;1.60;99.90
59301;DHT22;45073;52.740;6.784;2024-01-16T11:35:36;1.60;99.90
59301;DHT22;45073;52.740;6.784;2024-01-16T11:38:17;1.60;99.90
59301;DHT22;45073;52.740;6.784;2024-01-16T11:40:44;1.60;99.90
59301;DHT22;45073;52.740;6.784;2024-01-16T11:46:01;1.60;99.90
59301;DHT22;45073;52.740;6.784;2024-01-16T11:48:27;1.60;99.90
59301;DHT22;45073;52.740;6.784;2024-01-16T11:50:53;1.60;99.90
59301;DHT22;45073;52.740;6.784;2024-01-16T11:53:38;1.70;99.90
59301;DHT22;45073;52.740;6.784;2024-01-16T12:01:50;1.70;99.90
59301;DHT22;45073;52.740;6.784;2024-01-16T12:04:18;1.70;99.90
59301;DHT22;45073;52.740;6.784;2024-01-16T12:06:59;1.70;99.90
59301;DHT22;45073;52.740;6.784;2024-01-16T12:09:26;1.70;99.90
59301;DHT22;45073;52.740;6.784;2024-01-16T12:12:00;1.70;99.90
59301;DHT22;45073;52.740;6.784;2024-01-16T12:14:27;1.70;99.90
59301;DHT22;45073;52.740;6.784;2024-01-16T12:16:53;1.70;99.90
59301;DHT22;45073;52.740;6.784;2024-01-16T12:19:33;1.70;99.90
59301;DHT22;45073;52.740;6.784;2024-01-16T12:21:59;1.70;99.90
59301;DHT22;45073;52.740;6.784;2024-01-16T12:24:24;1.70;99.90
59301;DHT22;45073;52.740;6.784;2024-01-16T12:26:50;1.70;99.90
59301;DHT22;45073;52.740;6.784;2024-01-16T12:29:17;1.70;99.90
59301;DHT22;45073;52.740;6.784;2024-01-16T12:31:43;1.70;99.90
59301;DHT22;45073;52.740;6.784;2024-01-16T12:34:09;1.70;99.90
59301;DHT22;45073;52.740;6.784;2024-01-16T12:36:36;1.70;99.90
59301;DHT22;45073;52.740;6.784;2024-01-16T12:39:02;1.80;99.90
59301;DHT22;45073;52.740;6.784;2024-01-16T12:41:39;1.80;99.90
59301;DHT22;45073;52.740;6.784;2024-01-16T12:44:06;1.80;99.90
59301;DHT22;45073;52.740;6.784;2024-01-16T12:46:32;1.80;99.90
59301;DHT22;45073;52.740;6.784;2024-01-16T12:49:04;1.90;99.90
59301;DHT22;45073;52.740;6.784;2024-01-16T12:51:31;1.90;99.90
59301;DHT22;45073;52.740;6.784;2024-01-16T12:54:14;2.00;99.90
59301;DHT22;45073;52.740;6.784;2024-01-16T12:56:40;2.00;99.90
59301;DHT22;45073;52.740;6.784;2024-01-16T12:59:12;2.00;99.90
59301;DHT22;45073;52.740;6.784;2024-01-16T13:01:43;2.10;99.90
59301;DHT22;45073;52.740;6.784;2024-01-16T13:04:10;2.20;99.90
59301;DHT22;45073;52.740;6.784;2024-01-16T13:06:35;2.40;99.90
59301;DHT22;45073;52.740;6.784;2024-01-16T13:09:09;2.70;99.90
59301;DHT22;45073;52.740;6.784;2024-01-16T13:11:49;2.90;99.90
59301;DHT22;45073;52.740;6.784;2024-01-16T13:14:16;3.00;99.90
59301;DHT22;45073;52.740;6.784;2024-01-16T13:16:41;2.90;99.90
59301;DHT22;45073;52.740;6.784;2024-01-16T13:19:07;2.80;99.90
59301;DHT22;45073;52.740;6.784;2024-01-16T13:21:36;2.60;99.90
59301;DHT22;45073;52.740;6.784;2024-01-16T13:24:03;2.50;99.90
59301;DHT22;45073;52.740;6.784;2024-01-16T13:26:28;2.50;99.90
59301;DHT22;45073;52.740;6.784;2024-01-16T13:28:54;2.40;99.90
59301;DHT22;45073;52.740;6.784;2024-01-16T13:31:20;2.40;99.90
59301;DHT22;45073;52.740;6.784;2024-01-16T13:33:45;2.40;99.90
59301;DHT22;45073;52.740;6.784;2024-01-16T13:36:11;2.40;99.90
59301;DHT22;45073;52.740;6.784;2024-01-16T13:38:37;2.40;99.90
59301;DHT22;45073;52.740;6.784;2024-01-16T13:41:03;2.50;99.90
59301;DHT22;45073;52.740;6.784;2024-01-16T13:43:28;2.70;99.90
59301;DHT22;45073;52.740;6.784;2024-01-16T13:45:54;3.00;99.90
59301;DHT22;45073;52.740;6.784;2024-01-16T13:48:20;3.60;99.90
59301;DHT22;45073;52.740;6.784;2024-01-16T13:50:47;3.80;99.90
59301;DHT22;45073;52.740;6.784;2024-01-16T13:53:12;3.80;99.90
59301;DHT22;45073;52.740;6.784;2024-01-16T13:55:40;3.70;99.90
59301;DHT22;45073;52.740;6.784;2024-01-16T13:58:07;3.60;99.90
59301;DHT22;45073;52.740;6.784;2024-01-16T14:00:32;3.50;99.90
59301;DHT22;45073;52.740;6.784;2024-01-16T14:02:58;3.40;99.90
59301;DHT22;45073;52.740;6.784;2024-01-16T14:05:24;3.30;99.90
59301;DHT22;45073;52.740;6.784;2024-01-16T14:07:52;3.30;99.90
59301;DHT22;45073;52.740;6.784;2024-01-16T14:10:21;3.90;99.90
59301;DHT22;45073;52.740;6.784;2024-01-16T14:12:49;4.50;99.90
59301;DHT22;45073;52.740;6.784;2024-01-16T14:15:16;4.90;99.90
59301;DHT22;45073;52.740;6.784;2024-01-16T14:17:55;5.90;99.90
59301;DHT22;45073;52.740;6.784;2024-01-16T14:20:23;5.60;99.90
59301;DHT22;45073;52.740;6.784;2024-01-16T14:22:59;5.10;99.90
59301;DHT22;45073;52.740;6.784;2024-01-16T14:25:25;5.10;99.90
59301;DHT22;45073;52.740;6.784;2024-01-16T14:28:01;5.10;99.90
59301;DHT22;45073;52.740;6.784;2024-01-16T14:30:34;4.70;99.90
59301;DHT22;45073;52.740;6.784;2024-01-16T14:33:00;4.30;99.90
59301;DHT22;45073;52.740;6.784;2024-01-16T14:35:26;3.90;99.90
59301;DHT22;45073;52.740;6.784;2024-01-16T14:37:52;3.70;99.90
59301;DHT22;45073;52.740;6.784;2024-01-16T14:40:18;3.40;99.90
59301;DHT22;45073;52.740;6.784;2024-01-16T14:42:54;3.30;99.90
59301;DHT22;45073;52.740;6.784;2024-01-16T14:45:22;3.10;99.90
59301;DHT22;45073;52.740;6.784;2024-01-16T14:47:48;3.10;99.90
59301;DHT22;45073;52.740;6.784;2024-01-16T14:50:16;3.00;99.90
59301;DHT22;45073;52.740;6.784;2024-01-16T14:52:45;3.20;99.90
59301;DHT22;45073;52.740;6.784;2024-01-16T14:55:11;3.80;99.90
59301;DHT22;45073;52.740;6.784;2024-01-16T14:57:39;4.30;99.90
59301;DHT22;45073;52.740;6.784;2024-01-16T15:00:10;4.60;99.90
59301;DHT22;45073;52.740;6.784;2024-01-16T15:02:56;4.70;99.90
59301;DHT22;45073;52.740;6.784;2024-01-16T15:05:23;4.60;99.90
59301;DHT22;45073;52.740;6.784;2024-01-16T15:07:49;4.40;99.90
59301;DHT22;45073;52.740;6.784;2024-01-16T15:10:17;4.00;99.90
59301;DHT22;45073;52.740;6.784;2024-01-16T15:12:44;3.70;99.90
59301;DHT22;45073;52.740;6.784;2024-01-16T15:15:11;3.40;99.90
59301;DHT22;45073;52.740;6.784;2024-01-16T15:17:39;3.20;99.90
59301;DHT22;45073;52.740;6.784;2024-01-16T15:20:06;3.00;99.90
59301;DHT22;45073;52.740;6.784;2024-01-16T15:22:44;2.80;99.90
59301;DHT22;45073;52.740;6.784;2024-01-16T15:25:11;2.70;99.90
59301;DHT22;45073;52.740;6.784;2024-01-16T15:27:38;2.60;99.90
59301;DHT22;45073;52.740;6.784;2024-01-16T15:30:04;2.50;99.90
59301;DHT22;45073;52.740;6.784;2024-01-16T15:32:30;2.50;99.90
59301;DHT22;45073;52.740;6.784;2024-01-16T15:34:57;2.50;99.90
59301;DHT22;45073;52.740;6.784;2024-01-16T15:37:23;2.60;99.90
59301;DHT22;45073;52.740;6.784;2024-01-16T15:39:48;2.60;99.90
59301;DHT22;45073;52.740;6.784;2024-01-16T15:42:14;2.60;99.90
59301;DHT22;45073;52.740;6.784;2024-01-16T15:44:39;2.60;99.90
59301;DHT22;45073;52.740;6.784;2024-01-16T15:47:05;2.60;99.90
59301;DHT22;45073;52.740;6.784;2024-01-16T15:49:31;2.50;99.90